Main page
METAR-TAF:

METAR-TAF

Airports :

Brunei, Brunei

Brunei International Airport

latitude: 04-56N, longitude: 114-56E, elevation: 22 m

Current weather observation

The report was made 39 minutes ago, at 01:30 UTC
Wind 7 kt from the East
Temperature 30°C
Humidity 75%
Pressure 1012 hPa
Visibility: 8000 m
Few clouds at a height of 1500 ft
Scattered clouds at a height of 14000 ft
Broken clouds at a height of 30000 ft

METAR: WBSB 230130Z 08007KT 8000 FEW015 SCT140 BKN300 30/25 Q1012 NOSIG

Time: 10:09 (02:09 UTC)

Forecast

The report was made 3 hours and 9 minutes ago, at 23:00 UTC
Forecast valid from 23 at 00 UTC to 24 at 06 UTC
Wind 2 kt from the Southeast
Visibility: 8000 m
Few clouds at a height of 1500 ft
Becoming
from 23 at 03 UTC to 23 at 05 UTC
Wind 8 kt from the Northwest
Few clouds at a height of 1600 ft
Few clouds at a height of 1700 ft, Cumulonimbus.

TAF: WBSB 222300Z 2300/2406 14002KT 8000 FEW015 BECMG 2303/2305 32008KT FEW016 FEW017CB

Weather observations and forecasts of more than 4000 airports (METAR and TAF reports).

The available stations are represented by yellow and red dots on the map.

Hover mouse over dot to see the name of the station.

Then click to see weather observations and forecasts.

To change the map : click on the green buttons with a black cross to zoom in, on the green button with a dash to zoom out, or on the green arrows for adjacent maps.


METAR-TAF: